Time;durP1;ratioP1;P1;durP2;ratioP2;P2;SDS_P1;SDS_P2;PMS_P1;PMS_P2;Temp;Humidity;BMP_temperature;BMP_pressure;BME280_temperature;BME280_humidity;BME280_pressure;Samples;Min_cycle;Max_cycle;Signal;HPM_P1;HPM_P2
2022/09/20 00:01:27;;;;;;;18.05;14.75;;;11.80;99.90;;;;;;5082952;28;20314;-80
2022/09/20 00:04:15;;;;;;;19.52;15.55;;;11.70;99.90;;;;;;5080759;28;20279;-82
2022/09/20 00:07:05;;;;;;;20.85;15.00;;;11.80;99.90;;;;;;5080030;28;20797;-82
2022/09/20 00:09:55;;;;;;;20.50;16.75;;;11.80;99.90;;;;;;5070223;28;20231;-79
2022/09/20 00:12:44;;;;;;;20.08;15.77;;;11.80;99.90;;;;;;5081307;28;20219;-79
2022/09/20 00:15:34;;;;;;;19.92;15.88;;;11.80;99.90;;;;;;5081711;28;20591;-79
2022/09/20 00:18:22;;;;;;;19.33;14.80;;;11.70;99.90;;;;;;5081507;28;20291;-79
2022/09/20 00:21:16;;;;;;;21.40;16.10;;;11.70;99.90;;;;;;5079991;28;20566;-79
2022/09/20 00:24:06;;;;;;;20.90;14.80;;;11.60;99.90;;;;;;5079354;28;20978;-79
2022/09/20 00:26:55;;;;;;;18.25;15.23;;;11.60;99.90;;;;;;5076776;28;20341;-79
2022/09/20 00:29:43;;;;;;;17.50;14.45;;;11.70;99.90;;;;;;5063569;28;20250;-80
2022/09/20 00:32:32;;;;;;;17.30;14.80;;;11.60;99.90;;;;;;5080982;28;20507;-79
2022/09/20 00:35:19;;;;;;;18.05;15.52;;;11.70;99.90;;;;;;5076797;28;20998;-80
2022/09/20 00:38:09;;;;;;;19.98;16.15;;;11.70;99.90;;;;;;5065968;28;20821;-80
2022/09/20 00:40:59;;;;;;;21.23;16.27;;;11.60;99.90;;;;;;5077782;28;20223;-79
2022/09/20 00:43:48;;;;;;;19.05;15.55;;;11.70;99.90;;;;;;5078716;28;20266;-79
2022/09/20 00:46:41;;;;;;;20.10;16.13;;;11.70;99.90;;;;;;5064674;28;20754;-79
2022/09/20 00:49:30;;;;;;;19.30;15.35;;;11.70;99.90;;;;;;5076282;28;20415;-79
2022/09/20 00:52:19;;;;;;;21.17;17.08;;;11.80;99.90;;;;;;5063750;28;20228;-79
2022/09/20 00:55:10;;;;;;;20.17;15.93;;;11.80;99.90;;;;;;5053456;28;20323;-80
2022/09/20 00:58:00;;;;;;;21.38;17.45;;;11.70;99.90;;;;;;5065344;28;20227;-80
2022/09/20 01:00:50;;;;;;;23.80;17.65;;;11.70;99.90;;;;;;5067256;28;20284;-81
2022/09/20 01:03:40;;;;;;;21.40;16.38;;;11.60;99.90;;;;;;5066278;28;20374;-80
2022/09/20 01:06:30;;;;;;;21.23;16.65;;;11.70;99.90;;;;;;5064070;28;20293;-80
2022/09/20 01:09:19;;;;;;;23.70;16.60;;;11.70;99.90;;;;;;5065109;28;20296;-80
2022/09/20 01:12:13;;;;;;;23.10;16.35;;;11.60;99.90;;;;;;5051562;28;20338;-80
2022/09/20 01:15:05;;;;;;;22.58;16.98;;;11.60;99.90;;;;;;5065980;28;20224;-80
2022/09/20 01:17:57;;;;;;;18.92;15.65;;;11.60;99.90;;;;;;5065275;28;20224;-80
2022/09/20 01:20:48;;;;;;;18.73;14.77;;;11.70;99.90;;;;;;5067717;28;20215;-80
2022/09/20 01:23:46;;;;;;;22.52;17.00;;;11.70;99.90;;;;;;5065109;28;20233;-83
2022/09/20 01:26:58;;;;;;;21.42;15.52;;;11.60;99.90;;;;;;5065476;28;20776;-80
2022/09/20 01:30:03;;;;;;;19.95;16.13;;;11.60;99.90;;;;;;5067519;28;20231;-80
2022/09/20 01:33:07;;;;;;;22.63;15.18;;;11.60;99.90;;;;;;5065287;28;20315;-79
2022/09/20 01:35:58;;;;;;;23.35;16.08;;;11.50;99.90;;;;;;5064184;28;20353;-80
2022/09/20 01:38:55;;;;;;;21.08;15.85;;;11.60;99.90;;;;;;5068002;28;20280;-81
2022/09/20 01:41:48;;;;;;;23.90;16.42;;;11.50;99.90;;;;;;5062213;28;20311;-81
2022/09/20 01:44:43;;;;;;;23.95;17.00;;;11.50;99.90;;;;;;5066008;28;20228;-81
2022/09/20 01:47:40;;;;;;;24.25;17.13;;;11.50;99.90;;;;;;5036559;28;20310;-80
2022/09/20 01:50:35;;;;;;;20.38;15.77;;;11.50;99.90;;;;;;5069771;28;20304;-79
2022/09/20 01:53:48;;;;;;;22.52;16.33;;;11.60;99.90;;;;;;5077023;28;20227;-80
2022/09/20 01:57:13;;;;;;;21.95;16.52;;;11.50;99.90;;;;;;5061338;28;20318;-79
2022/09/20 02:00:10;;;;;;;20.77;15.50;;;11.60;99.90;;;;;;5076628;28;20224;-80
2022/09/20 02:03:50;;;;;;;19.65;15.68;;;11.50;99.90;;;;;;5077298;28;20215;-79
2022/09/20 02:07:05;;;;;;;22.65;15.32;;;11.50;99.90;;;;;;5039376;28;20682;-82
2022/09/20 02:10:12;;;;;;;20.20;16.00;;;11.50;99.90;;;;;;5061823;28;20302;-81
2022/09/20 02:13:04;;;;;;;21.13;15.63;;;11.40;99.90;;;;;;5075446;28;20302;-80
2022/09/20 02:16:25;;;;;;;22.20;16.00;;;11.20;99.90;;;;;;5078102;28;20283;-80
2022/09/20 02:19:33;;;;;;;23.40;16.40;;;11.30;99.90;;;;;;5078185;28;20234;-82
2022/09/20 02:22:43;;;;;;;22.77;16.13;;;11.30;99.90;;;;;;5062176;28;20215;-80
2022/09/20 02:25:53;;;;;;;22.67;16.20;;;11.30;99.90;;;;;;5061324;28;20314;-80
2022/09/20 02:28:54;;;;;;;22.98;16.08;;;11.30;99.90;;;;;;5061266;28;20215;-81
2022/09/20 02:32:00;;;;;;;22.02;16.45;;;11.30;99.90;;;;;;5077714;28;20276;-80
2022/09/20 02:35:12;;;;;;;22.45;16.20;;;11.30;99.90;;;;;;5064732;28;20223;-81
2022/09/20 02:38:11;;;;;;;21.92;15.73;;;11.30;99.90;;;;;;5077544;28;20219;-80
2022/09/20 02:41:29;;;;;;;18.58;14.75;;;11.20;99.90;;;;;;5078552;28;20375;-80
2022/09/20 02:44:39;;;;;;;20.65;15.32;;;11.20;99.90;;;;;;5077451;28;20310;-80
2022/09/20 02:47:33;;;;;;;21.33;15.75;;;11.20;99.90;;;;;;5072556;28;20333;-80
2022/09/20 02:50:29;;;;;;;20.67;15.00;;;11.10;99.90;;;;;;5075952;28;20254;-79
2022/09/20 02:53:32;;;;;;;21.52;15.45;;;11.20;99.90;;;;;;5062201;28;20254;-81
2022/09/20 02:56:29;;;;;;;21.45;15.90;;;11.20;99.90;;;;;;5077495;28;20234;-80
2022/09/20 02:59:27;;;;;;;22.23;16.00;;;11.20;99.90;;;;;;5063349;28;20283;-80
2022/09/20 03:02:23;;;;;;;19.88;15.55;;;11.30;99.90;;;;;;5075392;28;20837;-80
2022/09/20 03:05:18;;;;;;;20.85;15.68;;;11.30;99.90;;;;;;5061552;28;20262;-80
2022/09/20 03:08:20;;;;;;;19.85;15.73;;;11.30;99.90;;;;;;5075984;28;20407;-80
2022/09/20 03:11:18;;;;;;;20.30;15.63;;;11.40;99.90;;;;;;5061832;28;20227;-81
2022/09/20 03:14:14;;;;;;;22.40;16.08;;;11.30;99.90;;;;;;5077959;28;20357;-81
2022/09/20 03:17:14;;;;;;;20.67;16.17;;;11.30;99.90;;;;;;5077113;28;20216;-80
2022/09/20 03:20:15;;;;;;;20.45;15.73;;;11.30;99.90;;;;;;5064825;28;20235;-80
2022/09/20 03:23:13;;;;;;;23.05;16.67;;;11.30;99.90;;;;;;5080227;28;20847;-80
2022/09/20 03:26:13;;;;;;;20.08;16.67;;;11.30;99.90;;;;;;5078673;28;20250;-80
2022/09/20 03:29:09;;;;;;;19.33;16.08;;;11.30;99.90;;;;;;5079565;28;20238;-80
2022/09/20 03:32:12;;;;;;;18.08;15.70;;;11.30;99.90;;;;;;5077552;28;20238;-80
2022/09/20 03:35:14;;;;;;;18.05;15.00;;;11.30;99.90;;;;;;5062319;28;20219;-82
2022/09/20 03:38:19;;;;;;;16.38;13.90;;;11.30;99.90;;;;;;5062518;28;20222;-80
2022/09/20 03:41:24;;;;;;;18.27;14.15;;;11.30;99.90;;;;;;5078638;28;20990;-83
2022/09/20 03:44:41;;;;;;;17.40;13.77;;;11.40;99.90;;;;;;5076741;28;20234;-80
2022/09/20 03:47:46;;;;;;;18.60;13.55;;;11.40;99.90;;;;;;5081695;28;20310;-80
2022/09/20 03:51:00;;;;;;;19.92;13.63;;;11.30;99.90;;;;;;5064892;28;20285;-78
2022/09/20 03:54:15;;;;;;;14.02;12.40;;;11.40;99.90;;;;;;5081710;28;20253;-81
2022/09/20 03:57:38;;;;;;;16.60;13.55;;;11.30;99.90;;;;;;5065148;28;20702;-81
2022/09/20 04:00:38;;;;;;;18.45;13.88;;;11.20;99.90;;;;;;5078547;28;20756;-81
2022/09/20 04:03:36;;;;;;;16.52;13.75;;;11.30;99.90;;;;;;5079164;28;20323;-81
2022/09/20 04:06:42;;;;;;;15.02;13.05;;;11.30;99.90;;;;;;5078621;28;20310;-81
2022/09/20 04:10:06;;;;;;;17.63;13.38;;;11.30;99.90;;;;;;5080274;28;20259;-80
2022/09/20 04:13:12;;;;;;;18.33;13.77;;;11.30;99.90;;;;;;5078386;28;21049;-81
2022/09/20 04:16:26;;;;;;;15.48;12.65;;;11.30;99.90;;;;;;5078392;28;20227;-80
2022/09/20 04:19:21;;;;;;;19.35;12.90;;;11.30;99.90;;;;;;5080365;28;20231;-80
2022/09/20 04:22:10;;;;;;;14.43;12.88;;;11.30;99.90;;;;;;5077408;28;20288;-80
2022/09/20 04:25:05;;;;;;;16.48;12.65;;;11.30;99.90;;;;;;5074795;28;20319;-80
2022/09/20 04:27:58;;;;;;;16.80;12.57;;;11.40;99.90;;;;;;5062780;28;20444;-80
2022/09/20 04:30:47;;;;;;;14.98;11.77;;;11.40;99.90;;;;;;5076443;28;20799;-80
2022/09/20 04:33:43;;;;;;;15.63;12.70;;;11.50;99.90;;;;;;5078003;28;20862;-88
2022/09/20 04:36:49;;;;;;;13.35;11.85;;;11.40;99.90;;;;;;5086882;28;20276;-87
2022/09/20 04:39:47;;;;;;;13.57;12.00;;;11.30;99.90;;;;;;5069739;28;20227;-87
2022/09/20 04:43:09;;;;;;;14.18;12.00;;;11.40;99.90;;;;;;5081721;28;20216;-86
2022/09/20 04:46:17;;;;;;;15.02;12.23;;;11.30;99.90;;;;;;5085972;28;20227;-86
2022/09/20 04:49:34;;;;;;;15.70;12.90;;;11.30;99.90;;;;;;5085574;28;20230;-87
2022/09/20 04:52:54;;;;;;;17.20;13.43;;;11.30;99.90;;;;;;5085626;28;20356;-88
2022/09/20 04:55:51;;;;;;;15.52;12.35;;;11.30;99.90;;;;;;5086980;28;20333;-87
2022/09/20 04:58:46;;;;;;;17.40;12.77;;;11.30;99.90;;;;;;5081838;28;20228;-87
2022/09/20 05:02:22;;;;;;;15.35;12.45;;;11.40;99.90;;;;;;5069322;28;20326;-87
2022/09/20 05:05:34;;;;;;;14.93;12.60;;;11.30;99.90;;;;;;5085254;28;20227;-87
2022/09/20 05:09:05;;;;;;;15.00;12.43;;;11.40;99.90;;;;;;5084197;28;20235;-88
2022/09/20 05:12:11;;;;;;;16.13;12.70;;;11.40;99.90;;;;;;5066147;28;20296;-88
2022/09/20 05:15:10;;;;;;;16.45;12.90;;;11.50;99.90;;;;;;5079654;28;20266;-87
2022/09/20 05:18:20;;;;;;;16.55;12.65;;;11.50;99.90;;;;;;5084816;28;20231;-86
2022/09/20 05:21:23;;;;;;;15.10;12.20;;;11.50;99.90;;;;;;5071364;28;20231;-87
2022/09/20 05:24:25;;;;;;;13.88;12.23;;;11.50;99.90;;;;;;5071447;28;20594;-86
2022/09/20 05:27:33;;;;;;;15.38;11.38;;;11.50;99.90;;;;;;5068623;28;20223;-86
2022/09/20 05:30:32;;;;;;;15.13;12.27;;;11.50;99.90;;;;;;5083826;28;20211;-86
2022/09/20 05:33:28;;;;;;;16.33;11.48;;;11.60;99.90;;;;;;5071293;28;20298;-88
2022/09/20 05:36:29;;;;;;;17.30;11.98;;;11.70;99.90;;;;;;5069512;28;20228;-86
2022/09/20 05:39:36;;;;;;;14.60;11.43;;;11.70;99.90;;;;;;5068557;28;20312;-88
2022/09/20 05:42:38;;;;;;;31.58;17.67;;;11.60;99.90;;;;;;5081319;28;20365;-86
2022/09/20 05:45:57;;;;;;;13.50;10.70;;;11.70;99.90;;;;;;5070549;28;20230;-87
2022/09/20 05:48:55;;;;;;;15.07;11.82;;;11.70;99.90;;;;;;5067872;28;20286;-85
2022/09/20 05:51:59;;;;;;;14.95;10.80;;;11.70;99.90;;;;;;5067421;28;20234;-86
2022/09/20 05:55:08;;;;;;;15.82;10.98;;;11.70;99.90;;;;;;5063307;28;20342;-79
2022/09/20 05:58:30;;;;;;;13.82;10.65;;;11.70;99.90;;;;;;5060366;28;20223;-81
2022/09/20 06:01:25;;;;;;;13.98;10.80;;;11.70;99.90;;;;;;5076068;28;20634;-80
2022/09/20 06:04:18;;;;;;;13.93;11.25;;;11.70;99.90;;;;;;5061676;28;20682;-81
2022/09/20 06:07:20;;;;;;;14.05;11.73;;;11.70;99.90;;;;;;5077830;28;20304;-79
2022/09/20 06:10:32;;;;;;;15.05;11.98;;;11.60;99.90;;;;;;5075861;28;21030;-80
2022/09/20 06:13:38;;;;;;;14.82;11.73;;;11.80;99.90;;;;;;5060759;28;20219;-79
2022/09/20 06:16:38;;;;;;;13.35;11.68;;;11.80;99.90;;;;;;5062968;28;20390;-80
2022/09/20 06:19:35;;;;;;;15.88;11.65;;;11.80;99.90;;;;;;5078974;28;20238;-84
2022/09/20 06:22:28;;;;;;;17.00;11.35;;;11.80;99.90;;;;;;5076007;28;20325;-82
2022/09/20 06:25:22;;;;;;;19.70;13.07;;;11.70;99.90;;;;;;5062822;28;20937;-84
2022/09/20 06:28:16;;;;;;;17.83;12.18;;;11.70;99.90;;;;;;5064085;28;20237;-83
2022/09/20 06:31:09;;;;;;;15.02;11.98;;;11.80;99.90;;;;;;5083176;28;20361;-80
2022/09/20 06:34:03;;;;;;;17.05;13.18;;;11.80;99.90;;;;;;5079799;28;20228;-83
2022/09/20 06:43:40;;;;;;;16.33;13.20;;;11.80;99.90;;;;;;5054610;28;20230;-89
2022/09/20 06:46:30;;;;;;;17.83;13.00;;;11.90;99.90;;;;;;5071267;28;20223;-89
2022/09/20 06:49:18;;;;;;;17.13;12.98;;;11.90;99.90;;;;;;5071925;28;20242;-89
2022/09/20 06:52:09;;;;;;;18.85;13.77;;;11.80;99.90;;;;;;5073097;28;20231;-89
2022/09/20 06:54:58;;;;;;;17.83;13.68;;;11.90;99.90;;;;;;5073246;28;20234;-88
2022/09/20 06:57:50;;;;;;;19.92;13.27;;;11.80;99.90;;;;;;5073957;28;20272;-87
2022/09/20 07:00:39;;;;;;;22.77;13.13;;;11.90;99.90;;;;;;5071047;28;20245;-88
2022/09/20 07:03:27;;;;;;;17.38;13.13;;;12.00;99.90;;;;;;5087979;28;20356;-88
2022/09/20 07:06:18;;;;;;;18.23;13.45;;;12.10;99.90;;;;;;5084813;28;20333;-90
2022/09/20 07:09:07;;;;;;;16.98;12.75;;;12.20;99.90;;;;;;5073112;28;20231;-88
2022/09/20 07:11:57;;;;;;;17.90;12.95;;;12.10;99.90;;;;;;5068742;28;20242;-89
2022/09/20 07:14:49;;;;;;;17.98;13.00;;;12.20;99.90;;;;;;5081106;28;20223;-89
2022/09/20 07:17:37;;;;;;;25.23;13.90;;;12.20;99.90;;;;;;5066743;28;20224;-79
2022/09/20 07:20:26;;;;;;;18.73;13.48;;;12.30;99.90;;;;;;5060715;28;20226;-79
2022/09/20 07:23:15;;;;;;;19.13;14.27;;;12.30;99.90;;;;;;5062738;28;20234;-79
2022/09/20 07:26:04;;;;;;;20.60;14.30;;;12.10;99.90;;;;;;5078282;28;20234;-79
2022/09/20 07:28:53;;;;;;;23.60;13.93;;;12.20;99.90;;;;;;5079199;28;20315;-80
2022/09/20 07:31:43;;;;;;;17.08;14.10;;;12.30;99.90;;;;;;5078853;28;20345;-79
2022/09/20 07:34:32;;;;;;;19.65;13.85;;;12.30;99.90;;;;;;5075252;28;20228;-79
2022/09/20 07:37:21;;;;;;;18.58;13.70;;;12.30;99.90;;;;;;5075537;28;20230;-79
2022/09/20 07:40:11;;;;;;;17.92;12.57;;;12.30;99.90;;;;;;5076863;28;20339;-79
2022/09/20 07:42:59;;;;;;;19.13;13.95;;;12.30;99.90;;;;;;5076265;28;20707;-79
2022/09/20 07:45:51;;;;;;;16.63;13.90;;;12.40;99.90;;;;;;5076603;28;20254;-79
2022/09/20 07:48:41;;;;;;;17.33;12.65;;;12.40;99.90;;;;;;5079863;28;20216;-79
2022/09/20 07:51:31;;;;;;;18.00;13.10;;;12.50;99.90;;;;;;5073787;28;20234;-79
2022/09/20 07:54:20;;;;;;;15.10;12.45;;;12.50;99.90;;;;;;5076807;28;20361;-82
2022/09/20 07:57:08;;;;;;;18.17;13.18;;;12.50;99.90;;;;;;5079558;28;20219;-79
2022/09/20 07:59:56;;;;;;;15.95;12.60;;;12.60;99.90;;;;;;5063675;28;20224;-79
2022/09/20 08:02:45;;;;;;;17.67;12.90;;;12.70;99.90;;;;;;5074656;28;20711;-79
2022/09/20 08:05:35;;;;;;;15.82;12.13;;;12.90;99.90;;;;;;5075091;28;20235;-79
2022/09/20 08:08:23;;;;;;;15.18;12.93;;;13.00;99.90;;;;;;5062579;28;20360;-79
2022/09/20 08:11:14;;;;;;;15.73;13.50;;;13.10;99.90;;;;;;5078104;28;20785;-80
2022/09/20 08:14:04;;;;;;;19.02;14.40;;;13.20;99.90;;;;;;5062860;28;20239;-79
2022/09/20 08:16:59;;;;;;;19.33;13.85;;;13.10;99.90;;;;;;5074940;28;20231;-80
2022/09/20 08:19:47;;;;;;;15.32;13.30;;;13.20;99.90;;;;;;5076671;28;20268;-80
2022/09/20 08:22:40;;;;;;;18.90;15.27;;;13.20;99.90;;;;;;5061975;28;21161;-78
2022/09/20 08:25:29;;;;;;;19.73;16.65;;;13.40;99.90;;;;;;5079215;28;20269;-79
2022/09/20 08:28:18;;;;;;;19.45;14.55;;;13.60;99.90;;;;;;5063056;28;20228;-78
2022/09/20 08:31:08;;;;;;;17.02;14.35;;;13.50;99.90;;;;;;5074291;28;20230;-80
2022/09/20 08:33:57;;;;;;;18.23;13.75;;;13.40;99.90;;;;;;5081246;28;20249;-84
2022/09/20 08:36:50;;;;;;;14.80;12.43;;;13.30;99.90;;;;;;5084649;28;20314;-90
2022/09/20 08:39:40;;;;;;;16.10;12.63;;;13.20;99.90;;;;;;5075402;28;20224;-78
2022/09/20 08:42:46;;;;;;;15.18;11.63;;;13.20;99.90;;;;;;5078965;28;20224;-79
2022/09/20 08:45:34;;;;;;;14.35;11.60;;;13.20;99.90;;;;;;5073922;28;20365;-79
2022/09/20 08:48:31;;;;;;;14.48;12.00;;;13.20;99.90;;;;;;5075489;28;20247;-79
2022/09/20 08:51:22;;;;;;;14.80;11.98;;;13.30;99.90;;;;;;5074963;28;20334;-80
2022/09/20 08:54:15;;;;;;;15.10;12.23;;;13.30;99.90;;;;;;5076124;28;20294;-80
2022/09/20 08:57:14;;;;;;;16.58;12.55;;;13.20;99.90;;;;;;5072416;28;20319;-80
2022/09/20 09:00:06;;;;;;;16.52;12.60;;;13.30;99.90;;;;;;5061799;28;20326;-80
2022/09/20 09:02:57;;;;;;;12.50;11.20;;;13.40;99.90;;;;;;5058693;28;20219;-79
2022/09/20 09:05:48;;;;;;;16.20;12.27;;;13.50;99.90;;;;;;5077014;28;20273;-79
2022/09/20 09:08:38;;;;;;;20.67;15.10;;;13.50;99.90;;;;;;5077929;28;20230;-78
2022/09/20 09:11:27;;;;;;;16.65;13.65;;;13.60;99.90;;;;;;5075598;28;20310;-80
2022/09/20 09:17:34;;;;;;;18.88;15.63;;;13.40;99.90;;;;;;5078464;28;20228;-80
2022/09/20 09:20:23;;;;;;;17.00;15.20;;;13.30;99.90;;;;;;5063614;28;20230;-80
2022/09/20 09:23:24;;;;;;;18.00;15.40;;;13.40;99.90;;;;;;5082029;28;20302;-80
2022/09/20 09:26:17;;;;;;;17.42;15.20;;;13.30;99.90;;;;;;5078642;28;20211;-85
2022/09/20 09:29:16;;;;;;;16.85;14.55;;;13.20;99.90;;;;;;5066195;28;20231;-82
2022/09/20 09:32:22;;;;;;;18.08;14.68;;;13.30;99.90;;;;;;5082431;28;20251;-86
2022/09/20 09:35:24;;;;;;;17.75;15.10;;;13.40;99.90;;;;;;5083739;28;20227;-85
2022/09/20 09:38:22;;;;;;;18.20;15.93;;;13.40;99.90;;;;;;5088457;28;20693;-86
2022/09/20 09:41:28;;;;;;;19.05;15.75;;;13.40;99.90;;;;;;5068454;28;20890;-89
2022/09/20 09:44:23;;;;;;;18.55;16.63;;;13.40;99.90;;;;;;5081832;28;20361;-80
2022/09/20 09:47:26;;;;;;;18.73;16.73;;;13.60;99.90;;;;;;5077259;28;20339;-81
2022/09/20 09:50:22;;;;;;;17.75;15.85;;;13.70;99.90;;;;;;5062155;28;20234;-89
2022/09/20 09:53:15;;;;;;;16.58;14.85;;;13.60;99.90;;;;;;5062165;28;20232;-81
2022/09/20 09:56:46;;;;;;;17.58;15.70;;;13.70;99.90;;;;;;5077110;28;20239;-83
2022/09/20 09:59:56;;;;;;;18.85;15.85;;;13.70;99.90;;;;;;5080255;28;20665;-89
2022/09/20 10:03:17;;;;;;;20.70;16.55;;;13.70;99.90;;;;;;5068535;28;20239;-84
2022/09/20 10:06:15;;;;;;;18.60;16.70;;;13.90;99.90;;;;;;5083851;28;20223;-88
2022/09/20 10:09:18;;;;;;;19.13;16.48;;;14.00;99.90;;;;;;5081920;28;20255;-89
2022/09/20 10:12:20;;;;;;;18.25;16.42;;;14.20;99.90;;;;;;5074207;28;20972;-82
2022/09/20 10:15:28;;;;;;;16.70;14.82;;;14.30;99.90;;;;;;5084496;28;20333;-90
2022/09/20 10:18:31;;;;;;;17.13;15.43;;;14.20;99.90;;;;;;5087038;28;20277;-85
2022/09/20 10:24:39;;;;;;;15.23;13.77;;;14.60;99.90;;;;;;5042226;28;20215;-85
2022/09/20 10:27:40;;;;;;;14.07;12.65;;;14.80;99.90;;;;;;5077327;28;20223;-85
2022/09/20 10:30:41;;;;;;;15.43;12.52;;;14.90;99.90;;;;;;5076013;28;20265;-84
2022/09/20 10:33:38;;;;;;;13.10;11.75;;;15.00;99.90;;;;;;5061806;28;20211;-86
2022/09/20 10:36:32;;;;;;;16.73;11.77;;;15.20;99.90;;;;;;5075903;28;20570;-85
2022/09/20 10:39:26;;;;;;;14.38;12.45;;;15.20;99.90;;;;;;5077809;28;20323;-85
2022/09/20 10:45:41;;;;;;;12.82;11.52;;;15.30;99.90;;;;;;5048344;28;20312;-80
2022/09/20 10:49:02;;;;;;;13.55;12.20;;;15.20;99.90;;;;;;5079552;28;20223;-85
2022/09/20 10:52:02;;;;;;;13.25;11.95;;;15.40;99.90;;;;;;5078071;28;20230;-87
2022/09/20 10:55:14;;;;;;;13.60;12.30;;;15.50;99.90;;;;;;5072241;28;20211;-78
2022/09/20 10:58:45;;;;;;;14.77;13.27;;;15.70;99.90;;;;;;5061501;28;20227;-85
2022/09/20 11:01:43;;;;;;;12.27;10.98;;;16.10;99.90;;;;;;5061696;28;20211;-83
2022/09/20 11:04:55;;;;;;;13.38;12.18;;;16.00;99.90;;;;;;5061763;28;20231;-88
2022/09/20 11:07:54;;;;;;;13.82;10.38;;;15.90;99.90;;;;;;5074423;28;20224;-79
2022/09/20 11:10:48;;;;;;;12.13;10.82;;;15.90;99.90;;;;;;5060873;28;20219;-78
2022/09/20 11:13:44;;;;;;;11.88;10.43;;;15.90;99.90;;;;;;5074517;28;20272;-81
2022/09/20 11:16:40;;;;;;;15.65;11.15;;;15.60;99.90;;;;;;5063320;28;20224;-85
2022/09/20 11:19:35;;;;;;;15.02;11.40;;;15.60;99.90;;;;;;5074406;28;20376;-85
2022/09/20 11:22:31;;;;;;;11.05;9.95;;;15.70;99.90;;;;;;5060737;28;20220;-80
2022/09/20 11:25:33;;;;;;;10.55;9.52;;;15.70;99.90;;;;;;5075561;28;20219;-85
2022/09/20 11:28:27;;;;;;;10.48;9.38;;;15.90;99.90;;;;;;5073326;28;20218;-79
2022/09/20 11:31:23;;;;;;;9.45;8.32;;;15.80;99.90;;;;;;5074437;28;20311;-77
2022/09/20 11:34:18;;;;;;;9.55;8.55;;;15.40;99.90;;;;;;5064122;28;20273;-87
2022/09/20 11:37:06;;;;;;;12.85;8.70;;;15.50;99.90;;;;;;5057351;28;20352;-82
2022/09/20 11:40:01;;;;;;;8.73;7.93;;;15.60;99.90;;;;;;5059521;28;22532;-82
2022/09/20 11:42:51;;;;;;;9.73;8.70;;;15.70;99.90;;;;;;5063426;28;20314;-84
2022/09/20 11:45:41;;;;;;;9.80;8.80;;;15.90;99.90;;;;;;5077056;28;20215;-85
2022/09/20 11:48:34;;;;;;;8.25;7.47;;;16.00;99.90;;;;;;5078854;28;20328;-81
2022/09/20 11:51:44;;;;;;;8.57;7.22;;;16.10;99.90;;;;;;5062115;28;20338;-82
2022/09/20 11:55:09;;;;;;;9.23;7.07;;;16.00;99.90;;;;;;5062581;28;20294;-84
2022/09/20 11:58:02;;;;;;;7.05;6.45;;;15.90;99.90;;;;;;5076648;28;20231;-83
2022/09/20 12:00:55;;;;;;;6.97;5.97;;;16.00;99.90;;;;;;5079195;28;20227;-82
2022/09/20 12:03:49;;;;;;;7.22;5.80;;;16.40;99.90;;;;;;5082237;28;20259;-84
2022/09/20 12:07:00;;;;;;;6.80;5.32;;;16.50;99.90;;;;;;5067667;28;20230;-82
2022/09/20 12:10:00;;;;;;;6.82;5.10;;;16.50;99.90;;;;;;5077114;28;20789;-84
2022/09/20 12:12:49;;;;;;;6.13;5.40;;;16.30;99.90;;;;;;5080658;28;20223;-82
2022/09/20 12:15:43;;;;;;;6.03;5.32;;;16.30;99.90;;;;;;5065650;28;20223;-92
2022/09/20 12:18:47;;;;;;;20.13;5.65;;;16.30;99.90;;;;;;5079085;28;20357;-80
2022/09/20 12:22:12;;;;;;;13.45;5.75;;;16.30;99.90;;;;;;5067701;28;21188;-87
2022/09/20 12:25:37;;;;;;;6.20;5.18;;;16.30;99.90;;;;;;5075268;28;20262;-82
2022/09/20 12:28:34;;;;;;;5.85;5.30;;;16.20;99.90;;;;;;5071673;28;20223;-90
2022/09/20 12:31:47;;;;;;;6.05;5.20;;;16.10;99.90;;;;;;5080222;28;20301;-86
2022/09/20 12:34:37;;;;;;;5.35;4.85;;;15.90;99.90;;;;;;5084867;28;20208;-84
2022/09/20 12:37:26;;;;;;;6.05;5.15;;;15.90;99.90;;;;;;5081427;28;20365;-89
2022/09/20 12:40:17;;;;;;;14.00;5.18;;;15.80;99.90;;;;;;5067352;28;20232;-88
2022/09/20 12:43:17;;;;;;;6.57;5.00;;;15.70;99.90;;;;;;5077807;28;20223;-88
2022/09/20 12:46:05;;;;;;;7.55;4.70;;;15.70;99.90;;;;;;5080924;28;20219;-87
2022/09/20 12:53:02;;;;;;;7.18;4.70;;;16.00;99.90;;;;;;5072806;28;20260;-89
2022/09/20 12:55:55;;;;;;;9.25;4.95;;;16.30;99.90;;;;;;5071341;28;20235;-89
2022/09/20 12:58:52;;;;;;;5.68;4.28;;;16.60;99.90;;;;;;5086133;28;20227;-86
2022/09/20 13:01:42;;;;;;;5.53;4.40;;;16.70;99.90;;;;;;5083825;28;20724;-87
2022/09/20 13:05:01;;;;;;;5.13;4.18;;;16.80;99.90;;;;;;5085511;28;20234;-89
2022/09/20 13:07:58;;;;;;;5.70;5.07;;;17.00;99.90;;;;;;5087556;28;20304;-89
2022/09/20 13:10:54;;;;;;;6.20;4.75;;;17.20;99.90;;;;;;5086675;28;20250;-91
2022/09/20 13:13:47;;;;;;;6.18;4.45;;;17.10;99.90;;;;;;5093152;28;20226;-91
2022/09/20 13:16:46;;;;;;;5.22;4.32;;;17.00;99.90;;;;;;5069883;28;20690;-89
2022/09/20 13:19:37;;;;;;;4.95;4.38;;;16.90;99.90;;;;;;5086743;28;20250;-91
2022/09/20 13:22:29;;;;;;;4.78;3.90;;;16.80;99.90;;;;;;5074171;28;20720;-91
2022/09/20 13:25:21;;;;;;;6.03;3.90;;;16.70;99.90;;;;;;5088345;28;20227;-90
2022/09/20 13:28:24;;;;;;;5.60;3.90;;;16.50;99.90;;;;;;5071407;28;20341;-90
2022/09/20 13:31:31;;;;;;;7.38;3.88;;;16.40;99.90;;;;;;5083903;28;20246;-89
2022/09/20 13:34:22;;;;;;;6.97;3.90;;;16.20;99.90;;;;;;5078378;28;20361;-87
2022/09/20 13:37:19;;;;;;;4.15;2.80;;;16.00;99.90;;;;;;5076576;28;20682;-88
2022/09/20 13:40:18;;;;;;;3.42;2.88;;;15.80;99.90;;;;;;5082532;28;20353;-86
2022/09/20 13:43:19;;;;;;;3.58;3.28;;;15.60;99.90;;;;;;5068259;28;20310;-88
2022/09/20 13:46:15;;;;;;;4.10;3.70;;;15.60;99.90;;;;;;5074883;28;20215;-89
2022/09/20 13:49:16;;;;;;;5.65;4.38;;;15.30;99.90;;;;;;5076052;28;20243;-88
2022/09/20 13:52:22;;;;;;;6.45;4.43;;;15.30;99.90;;;;;;5066012;28;20337;-87
2022/09/20 13:55:26;;;;;;;5.07;4.40;;;15.30;99.90;;;;;;5069596;28;20318;-87
2022/09/20 13:58:22;;;;;;;7.50;4.40;;;15.00;99.90;;;;;;5079887;28;20601;-87
2022/09/20 14:01:22;;;;;;;4.88;3.58;;;15.00;99.90;;;;;;5062194;28;20227;-88
2022/09/20 14:04:16;;;;;;;3.47;2.90;;;14.90;99.90;;;;;;5081922;28;20246;-85
2022/09/20 14:07:07;;;;;;;4.93;3.00;;;14.80;99.90;;;;;;5071709;28;20223;-85
2022/09/20 14:09:57;;;;;;;5.95;3.00;;;14.60;99.90;;;;;;5060486;28;20372;-85
2022/09/20 14:12:48;;;;;;;5.40;3.42;;;14.50;99.90;;;;;;5076931;28;20224;-86
2022/09/20 14:15:41;;;;;;;6.63;2.65;;;14.50;99.90;;;;;;5077330;28;20268;-85
2022/09/20 14:18:30;;;;;;;4.18;3.50;;;14.40;99.90;;;;;;5075968;28;20285;-86
2022/09/20 14:21:23;;;;;;;5.47;3.75;;;14.50;99.90;;;;;;5061536;28;20815;-87
2022/09/20 14:24:30;;;;;;;4.80;3.05;;;14.50;99.90;;;;;;5074202;28;20360;-86
2022/09/20 14:27:21;;;;;;;3.88;2.50;;;14.50;99.90;;;;;;5076137;28;20267;-86
2022/09/20 14:30:29;;;;;;;3.53;2.95;;;14.50;99.90;;;;;;5071287;28;20353;-85
2022/09/20 14:33:20;;;;;;;7.25;3.10;;;14.50;99.90;;;;;;5073932;28;20226;-85
2022/09/20 14:36:14;;;;;;;6.00;3.20;;;14.60;99.90;;;;;;5071733;28;20305;-86
2022/09/20 14:39:04;;;;;;;6.32;3.08;;;14.60;99.90;;;;;;5075873;28;20330;-85
2022/09/20 14:41:54;;;;;;;5.25;3.13;;;14.60;99.90;;;;;;5060695;28;20330;-87
2022/09/20 14:44:42;;;;;;;5.45;3.45;;;14.60;99.90;;;;;;5074942;28;20322;-86
2022/09/20 14:47:38;;;;;;;19.35;13.40;;;14.70;99.90;;;;;;5076244;28;20793;-84
2022/09/20 14:50:31;;;;;;;6.38;4.35;;;14.70;99.90;;;;;;5074031;28;20843;-85
2022/09/20 14:53:26;;;;;;;6.45;3.72;;;14.80;99.90;;;;;;5076087;28;20401;-86
2022/09/20 14:56:16;;;;;;;5.32;4.18;;;14.80;99.90;;;;;;5066937;28;20231;-87
2022/09/20 14:59:20;;;;;;;5.15;4.53;;;14.80;99.90;;;;;;5069650;28;20220;-89
2022/09/20 15:02:13;;;;;;;6.18;4.38;;;14.80;99.90;;;;;;5072871;28;20294;-90
2022/09/20 15:05:02;;;;;;;5.90;5.22;;;14.80;99.90;;;;;;5086119;28;20230;-88
2022/09/20 15:07:53;;;;;;;10.55;4.97;;;14.80;99.90;;;;;;5074218;28;20223;-82
2022/09/20 15:10:41;;;;;;;7.28;3.50;;;14.60;99.90;;;;;;5074192;28;20220;-87
2022/09/20 15:13:30;;;;;;;6.10;3.50;;;14.30;99.90;;;;;;5080738;28;20667;-87
2022/09/20 15:16:20;;;;;;;5.22;3.78;;;14.40;99.90;;;;;;5084279;28;21042;-87
2022/09/20 15:19:09;;;;;;;4.45;2.95;;;14.40;99.90;;;;;;5068945;28;20232;-86
2022/09/20 15:21:59;;;;;;;5.18;3.10;;;14.40;99.90;;;;;;5066453;28;20235;-90
2022/09/20 15:24:49;;;;;;;3.88;3.35;;;14.50;99.90;;;;;;5075232;28;20238;-89
2022/09/20 15:27:38;;;;;;;5.28;2.80;;;14.50;99.90;;;;;;5078369;28;20376;-89
2022/09/20 15:30:26;;;;;;;7.55;2.70;;;14.50;99.90;;;;;;5088504;28;20215;-89